Time;durP1;ratioP1;P1;durP2;ratioP2;P2;SDS_P1;SDS_P2;PMS_P1;PMS_P2;Temp;Humidity;BMP_temperature;BMP_pressure;BME280_temperature;BME280_humidity;BME280_pressure;Samples;Min_cycle;Max_cycle;Signal;HPM_P1;HPM_P2
2023/01/11 00:02:14;;;;;;;0.45;0.20;;;13.00;71.90;;;;;;5045697;28;20037;-48
2023/01/11 00:04:43;;;;;;;0.70;0.10;;;13.10;71.90;;;;;;5049472;28;20099;-50
2023/01/11 00:07:12;;;;;;;0.10;0.10;;;13.10;71.90;;;;;;5049788;28;20039;-53
2023/01/11 00:09:38;;;;;;;0.05;0.05;;;13.20;71.90;;;;;;5050334;28;20052;-52
2023/01/11 00:12:11;;;;;;;0.25;0.10;;;13.10;71.90;;;;;;5043055;28;20052;-50
2023/01/11 00:14:38;;;;;;;0.38;0.10;;;13.20;71.80;;;;;;5050195;28;20106;-51
2023/01/11 00:17:05;;;;;;;0.10;0.10;;;13.20;71.80;;;;;;5050135;28;20408;-49
2023/01/11 00:19:35;;;;;;;0.10;0.10;;;13.20;71.80;;;;;;5049088;28;20572;-51
2023/01/11 00:22:03;;;;;;;0.20;0.10;;;13.30;71.80;;;;;;5045412;28;20060;-50
2023/01/11 00:24:37;;;;;;;0.10;0.10;;;13.30;71.70;;;;;;5050579;28;20079;-51
2023/01/11 00:27:03;;;;;;;1.20;0.20;;;13.40;71.60;;;;;;5048999;28;20041;-48
2023/01/11 00:29:30;;;;;;;0.32;0.15;;;13.40;71.60;;;;;;5044206;28;20520;-52
2023/01/11 00:31:59;;;;;;;0.32;0.32;;;13.40;71.50;;;;;;5044771;28;20410;-52
2023/01/11 00:34:26;;;;;;;0.75;0.20;;;13.50;71.50;;;;;;5050349;28;20116;-50
2023/01/11 00:36:55;;;;;;;0.15;0.10;;;13.50;71.50;;;;;;5043800;28;20047;-49
2023/01/11 00:39:24;;;;;;;0.40;0.20;;;13.50;71.40;;;;;;5050311;28;20511;-48
2023/01/11 00:50:09;;;;;;;0.20;0.17;;;13.60;71.50;;;;;;5046818;28;20099;-48
2023/01/11 00:52:36;;;;;;;0.55;0.22;;;13.60;71.50;;;;;;5044875;28;20041;-48
2023/01/11 00:55:04;;;;;;;0.10;0.10;;;13.60;71.50;;;;;;5049641;28;20037;-51
2023/01/11 00:57:33;;;;;;;0.40;0.10;;;13.60;71.40;;;;;;5045956;28;20394;-51
2023/01/11 01:00:00;;;;;;;0.15;0.13;;;13.60;71.40;;;;;;5049515;28;20059;-48
2023/01/11 01:02:31;;;;;;;1.75;0.20;;;13.60;71.40;;;;;;5048890;28;20044;-48
2023/01/11 01:04:59;;;;;;;0.10;0.10;;;13.70;71.50;;;;;;5049428;28;20520;-47
2023/01/11 01:07:26;;;;;;;1.73;0.40;;;13.60;71.40;;;;;;5044024;28;20040;-48
2023/01/11 01:09:58;;;;;;;0.20;0.17;;;13.70;71.50;;;;;;5041483;28;20068;-49
2023/01/11 01:15:10;;;;;;;0.30;0.20;;;13.70;71.50;;;;;;5047563;28;20116;-48
2023/01/11 01:17:43;;;;;;;0.13;0.10;;;13.70;71.30;;;;;;5042822;28;20068;-48
2023/01/11 01:20:10;;;;;;;0.40;0.20;;;13.70;71.30;;;;;;5050064;28;20051;-49
2023/01/11 01:22:42;;;;;;;0.57;0.10;;;13.80;71.40;;;;;;5048461;28;20079;-50
2023/01/11 01:25:09;;;;;;;1.42;0.20;;;13.70;71.50;;;;;;5031782;28;20045;-49
2023/01/11 01:27:36;;;;;;;0.15;0.10;;;13.80;71.50;;;;;;5040481;28;20037;-48
2023/01/11 01:30:05;;;;;;;0.50;0.20;;;13.80;71.50;;;;;;5049577;28;20036;-51
2023/01/11 01:32:33;;;;;;;0.90;0.10;;;13.80;71.60;;;;;;5048556;28;20124;-48
2023/01/11 01:35:03;;;;;;;0.98;0.10;;;13.80;71.60;;;;;;5046526;28;20041;-52
2023/01/11 01:37:29;;;;;;;0.10;0.10;;;13.80;71.60;;;;;;5046643;28;20064;-47
2023/01/11 01:39:58;;;;;;;0.25;0.20;;;13.80;71.70;;;;;;5041794;28;20041;-48
2023/01/11 01:42:24;;;;;;;0.10;0.10;;;13.90;71.90;;;;;;5049056;28;20045;-48
2023/01/11 01:44:59;;;;;;;0.10;0.10;;;13.90;72.60;;;;;;5047693;28;20079;-47
2023/01/11 01:47:35;;;;;;;0.30;0.20;;;13.90;72.20;;;;;;5042355;28;20456;-52
2023/01/11 01:50:34;;;;;;;0.75;0.10;;;13.80;72.00;;;;;;5049067;28;20124;-48
2023/01/11 01:53:27;;;;;;;0.10;0.10;;;13.80;72.20;;;;;;5041932;28;20041;-48
2023/01/11 01:55:57;;;;;;;0.10;0.10;;;13.80;72.10;;;;;;5042042;28;20108;-47
2023/01/11 01:58:31;;;;;;;0.57;0.20;;;13.90;72.20;;;;;;5049028;28;20125;-51
2023/01/11 02:01:45;;;;;;;0.55;0.22;;;13.80;72.20;;;;;;5040753;28;20501;-48
2023/01/11 02:03:45;;;;;;;0.47;0.28;;;13.90;72.20;;;;;;5043000;28;20045;-49
2023/01/11 02:06:15;;;;;;;0.20;0.20;;;13.90;72.30;;;;;;5043915;28;20037;-49
2023/01/11 02:08:48;;;;;;;0.10;0.10;;;13.90;72.40;;;;;;5048894;28;20043;-48
2023/01/11 02:11:31;;;;;;;0.30;0.20;;;13.90;72.50;;;;;;5048415;28;20035;-50
2023/01/11 02:14:03;;;;;;;0.10;0.10;;;13.90;72.40;;;;;;5021906;28;20098;-52
2023/01/11 02:16:35;;;;;;;0.10;0.08;;;13.90;72.40;;;;;;5046011;28;20037;-55
2023/01/11 02:19:12;;;;;;;0.20;0.10;;;13.90;72.40;;;;;;5044852;28;20120;-50
2023/01/11 02:21:53;;;;;;;0.10;0.00;;;14.00;72.50;;;;;;5051404;28;20063;-53
2023/01/11 02:24:32;;;;;;;0.10;0.10;;;14.00;72.60;;;;;;5047190;28;20037;-47
2023/01/11 02:27:30;;;;;;;0.30;0.10;;;14.10;72.60;;;;;;5049950;28;20049;-49
2023/01/11 02:30:12;;;;;;;0.10;0.10;;;14.10;72.70;;;;;;5052112;28;20067;-49
2023/01/11 02:33:00;;;;;;;0.75;0.10;;;14.10;72.50;;;;;;5048032;28;20065;-49
2023/01/11 02:35:46;;;;;;;0.90;0.10;;;14.10;72.60;;;;;;5046443;28;20067;-52
2023/01/11 02:38:28;;;;;;;0.65;0.13;;;14.10;73.10;;;;;;5046419;28;20051;-53
2023/01/11 02:41:24;;;;;;;0.10;0.10;;;14.10;72.30;;;;;;5044279;28;20142;-53
2023/01/11 02:47:08;;;;;;;0.07;0.00;;;14.20;72.40;;;;;;5044540;28;20048;-52
2023/01/11 02:49:39;;;;;;;0.20;0.20;;;14.20;72.20;;;;;;5051526;28;20668;-50
2023/01/11 02:52:19;;;;;;;0.20;0.10;;;14.20;72.20;;;;;;5048956;28;20059;-52
2023/01/11 02:54:56;;;;;;;0.10;0.00;;;14.20;72.20;;;;;;5052410;28;20103;-53
2023/01/11 02:57:25;;;;;;;0.20;0.10;;;14.20;72.20;;;;;;5051665;28;20090;-48
2023/01/11 02:59:56;;;;;;;0.10;0.10;;;14.20;72.30;;;;;;5049468;28;20124;-49
2023/01/11 03:02:24;;;;;;;0.00;0.00;;;14.20;72.40;;;;;;5044714;28;20619;-47
2023/01/11 03:04:51;;;;;;;0.20;0.10;;;14.20;72.40;;;;;;5051996;28;20041;-49
2023/01/11 03:08:03;;;;;;;0.00;0.00;;;14.20;72.50;;;;;;5051679;28;20398;-50
2023/01/11 03:10:44;;;;;;;0.15;0.03;;;14.30;73.20;;;;;;5041549;28;20095;-49
2023/01/11 03:13:32;;;;;;;0.20;0.10;;;14.20;72.90;;;;;;5022734;28;20056;-52
2023/01/11 03:16:19;;;;;;;0.00;0.00;;;14.20;73.10;;;;;;5051507;28;20037;-52
2023/01/11 03:18:57;;;;;;;0.57;0.10;;;14.20;73.20;;;;;;5043057;28;20053;-53
2023/01/11 03:21:41;;;;;;;0.00;0.00;;;14.10;73.10;;;;;;5048573;28;20048;-48
2023/01/11 03:24:32;;;;;;;0.20;0.10;;;14.10;73.40;;;;;;5044207;28;20044;-48
2023/01/11 03:27:11;;;;;;;0.00;0.00;;;14.10;73.90;;;;;;5047456;28;20045;-50
2023/01/11 03:29:53;;;;;;;0.20;0.10;;;14.10;73.90;;;;;;5049819;28;20115;-49
2023/01/11 03:32:52;;;;;;;0.15;0.00;;;14.00;73.70;;;;;;5051083;28;20056;-53
2023/01/11 03:35:44;;;;;;;0.13;0.00;;;14.00;74.00;;;;;;5040842;28;20069;-49
2023/01/11 03:38:35;;;;;;;0.10;0.00;;;14.00;73.80;;;;;;5015900;28;20065;-51
2023/01/11 03:41:08;;;;;;;0.00;0.00;;;13.90;74.00;;;;;;5050027;28;20041;-50
2023/01/11 03:43:38;;;;;;;0.10;0.10;;;13.90;74.10;;;;;;5051154;28;20363;-49
2023/01/11 03:46:28;;;;;;;0.10;0.00;;;13.90;74.20;;;;;;5044595;28;20132;-50
2023/01/11 03:49:03;;;;;;;0.35;0.10;;;13.90;74.40;;;;;;5046885;28;20827;-51
2023/01/11 03:51:37;;;;;;;0.10;0.10;;;13.90;74.40;;;;;;5027775;28;20493;-52
2023/01/11 03:54:10;;;;;;;0.32;0.10;;;13.90;74.60;;;;;;5042773;28;20087;-52
2023/01/11 03:57:01;;;;;;;0.00;0.00;;;13.90;74.50;;;;;;5045556;28;20052;-51
2023/01/11 03:59:38;;;;;;;0.00;0.00;;;13.90;74.70;;;;;;5049309;28;20051;-48
2023/01/11 04:02:33;;;;;;;0.38;0.03;;;13.90;74.50;;;;;;5041743;28;20063;-48
2023/01/11 04:05:02;;;;;;;0.00;0.00;;;13.90;74.90;;;;;;5029359;28;20055;-48
2023/01/11 04:07:30;;;;;;;0.13;0.13;;;13.90;74.70;;;;;;5049818;28;20566;-47
2023/01/11 04:09:59;;;;;;;0.85;0.20;;;13.90;74.90;;;;;;5031812;28;20091;-48
2023/01/11 04:12:26;;;;;;;1.25;0.28;;;13.90;75.00;;;;;;5044255;28;20036;-52
2023/01/11 04:14:52;;;;;;;0.03;0.03;;;13.90;75.10;;;;;;5036279;28;20034;-48
2023/01/11 04:17:22;;;;;;;0.10;0.10;;;13.90;75.30;;;;;;5047633;28;20040;-50
2023/01/11 04:19:49;;;;;;;0.10;0.10;;;13.90;75.30;;;;;;5048237;28;20505;-53
2023/01/11 04:22:19;;;;;;;0.10;0.10;;;13.90;75.30;;;;;;5050330;28;20041;-52
2023/01/11 04:24:54;;;;;;;0.45;0.08;;;13.90;75.50;;;;;;5044538;28;20052;-52
2023/01/11 04:27:24;;;;;;;0.00;0.00;;;13.90;76.00;;;;;;5050437;28;20041;-50
2023/01/11 04:29:50;;;;;;;0.00;0.00;;;13.90;75.50;;;;;;5050366;28;20514;-49
2023/01/11 04:32:17;;;;;;;0.10;0.00;;;13.90;75.60;;;;;;5047767;28;20048;-48
2023/01/11 04:34:50;;;;;;;0.08;0.00;;;13.90;75.70;;;;;;5041241;28;20498;-49
2023/01/11 04:37:16;;;;;;;0.17;0.13;;;13.80;75.80;;;;;;5046379;28;20064;-48
2023/01/11 04:39:43;;;;;;;0.25;0.10;;;13.90;76.00;;;;;;5041753;28;20056;-48
2023/01/11 04:42:18;;;;;;;0.98;0.00;;;13.90;76.70;;;;;;5038484;28;20099;-49
2023/01/11 04:44:53;;;;;;;0.00;0.00;;;13.90;76.10;;;;;;5034982;28;20467;-50
2023/01/11 04:47:25;;;;;;;0.00;0.00;;;13.90;76.60;;;;;;5048831;28;20033;-51
2023/01/11 04:49:53;;;;;;;0.00;0.00;;;13.90;76.30;;;;;;5049326;28;20489;-49
2023/01/11 04:52:24;;;;;;;0.08;0.08;;;13.90;76.30;;;;;;5047299;28;20113;-48
2023/01/11 04:54:54;;;;;;;0.00;0.00;;;13.90;76.30;;;;;;5033286;28;20465;-47
2023/01/11 04:57:21;;;;;;;0.57;0.13;;;13.90;76.40;;;;;;5049193;28;20033;-50
2023/01/11 04:59:49;;;;;;;1.25;0.25;;;13.90;76.40;;;;;;5042429;28;20417;-47
2023/01/11 05:02:18;;;;;;;0.10;0.10;;;13.80;76.50;;;;;;5047621;28;20175;-49
2023/01/11 05:04:49;;;;;;;0.15;0.00;;;13.90;76.60;;;;;;5039271;28;20049;-51
2023/01/11 05:07:15;;;;;;;0.30;0.10;;;13.80;76.70;;;;;;5034329;28;20474;-51
2023/01/11 05:09:42;;;;;;;0.00;0.00;;;13.90;76.70;;;;;;5042586;28;20045;-50
2023/01/11 05:12:09;;;;;;;0.57;0.00;;;13.80;76.80;;;;;;5039500;28;20489;-48
2023/01/11 05:14:35;;;;;;;0.15;0.15;;;13.80;76.80;;;;;;5035134;28;20069;-52
2023/01/11 05:17:11;;;;;;;0.32;0.30;;;13.90;77.00;;;;;;5041717;28;20044;-48
2023/01/11 05:19:38;;;;;;;0.43;0.43;;;13.80;77.00;;;;;;5034313;28;20049;-53
2023/01/11 05:22:08;;;;;;;0.77;0.20;;;13.90;77.10;;;;;;5048507;28;20124;-49
2023/01/11 05:24:35;;;;;;;0.08;0.03;;;13.80;77.20;;;;;;5037967;28;20060;-50
2023/01/11 05:27:02;;;;;;;0.38;0.10;;;13.90;77.20;;;;;;5037147;28;20524;-53
2023/01/11 05:29:29;;;;;;;0.60;0.30;;;13.80;77.20;;;;;;5038122;28;20121;-50
2023/01/11 05:31:56;;;;;;;0.52;0.47;;;13.80;77.20;;;;;;5041702;28;20045;-52
2023/01/11 05:34:25;;;;;;;0.47;0.30;;;13.80;77.30;;;;;;5041017;28;20045;-52
2023/01/11 05:36:54;;;;;;;0.05;0.05;;;13.80;78.00;;;;;;5036013;28;20052;-53
2023/01/11 05:39:30;;;;;;;0.10;0.10;;;13.90;77.50;;;;;;5022640;28;20175;-52
2023/01/11 05:42:05;;;;;;;0.20;0.10;;;13.90;77.70;;;;;;5038980;28;20516;-52
2023/01/11 05:47:23;;;;;;;0.10;0.10;;;13.80;77.60;;;;;;5036982;28;20045;-51
2023/01/11 05:49:50;;;;;;;0.00;0.00;;;13.90;77.70;;;;;;5021191;28;20053;-54
2023/01/11 05:52:24;;;;;;;1.40;0.30;;;13.90;77.70;;;;;;5036500;28;20041;-50
2023/01/11 05:54:51;;;;;;;0.10;0.10;;;13.80;77.90;;;;;;5039258;28;20494;-51
2023/01/11 05:57:18;;;;;;;0.10;0.10;;;13.90;77.80;;;;;;5047170;28;20040;-51
2023/01/11 05:59:51;;;;;;;0.47;0.10;;;13.80;77.80;;;;;;5045431;28;20099;-49
2023/01/11 06:02:18;;;;;;;0.05;0.03;;;13.80;77.90;;;;;;5044600;28;20055;-50
2023/01/11 06:04:48;;;;;;;1.35;0.30;;;13.80;78.00;;;;;;5048231;28;20413;-49
2023/01/11 06:07:14;;;;;;;0.25;0.10;;;13.90;78.20;;;;;;5046862;28;20452;-48
2023/01/11 06:09:41;;;;;;;0.38;0.10;;;13.80;78.10;;;;;;5042270;28;20038;-55
2023/01/11 06:12:14;;;;;;;0.20;0.20;;;13.90;78.20;;;;;;5042670;28;20041;-53
2023/01/11 06:14:46;;;;;;;0.03;0.00;;;13.90;78.20;;;;;;5043768;28;20045;-53
2023/01/11 06:17:15;;;;;;;0.13;0.10;;;13.90;78.20;;;;;;5042704;28;20036;-49
2023/01/11 06:19:44;;;;;;;0.00;0.00;;;13.90;78.20;;;;;;5040932;28;20095;-51
2023/01/11 06:22:12;;;;;;;1.08;0.10;;;13.90;78.20;;;;;;5052696;28;20055;-48
2023/01/11 06:24:40;;;;;;;0.40;0.20;;;13.90;78.30;;;;;;5049771;28;20041;-51
2023/01/11 06:27:09;;;;;;;0.05;0.05;;;13.90;78.20;;;;;;5045944;28;20041;-52
2023/01/11 06:29:36;;;;;;;0.15;0.10;;;13.90;78.30;;;;;;5043841;28;20037;-52
2023/01/11 06:32:12;;;;;;;1.70;0.55;;;13.90;78.30;;;;;;5051147;28;20622;-48
2023/01/11 06:34:43;;;;;;;1.45;0.22;;;13.90;78.30;;;;;;5052002;28;20045;-53
2023/01/11 06:37:19;;;;;;;0.60;0.50;;;13.90;78.20;;;;;;5041414;28;20041;-52
2023/01/11 06:39:50;;;;;;;0.35;0.30;;;14.00;78.60;;;;;;5040361;28;20055;-51
2023/01/11 06:42:17;;;;;;;0.30;0.30;;;13.90;78.30;;;;;;5043007;28;20115;-52
2023/01/11 06:44:45;;;;;;;0.20;0.20;;;14.00;78.40;;;;;;5041914;28;20049;-53
2023/01/11 06:47:11;;;;;;;0.32;0.20;;;13.90;78.40;;;;;;5044280;28;20045;-52
2023/01/11 06:49:38;;;;;;;0.20;0.20;;;14.00;79.00;;;;;;5045072;28;20049;-54
2023/01/11 06:52:07;;;;;;;0.55;0.20;;;14.00;78.40;;;;;;5050781;28;20041;-48
2023/01/11 06:54:33;;;;;;;0.17;0.17;;;13.90;78.20;;;;;;5038232;28;20037;-51
2023/01/11 06:57:02;;;;;;;0.17;0.17;;;13.90;78.20;;;;;;5040913;28;20572;-49
2023/01/11 06:59:31;;;;;;;4.47;0.30;;;14.00;78.40;;;;;;5040587;28;20087;-49
2023/01/11 07:02:00;;;;;;;0.10;0.10;;;13.90;78.30;;;;;;5040728;28;20513;-53
2023/01/11 07:04:29;;;;;;;0.20;0.10;;;13.90;78.50;;;;;;5035063;28;20132;-51
2023/01/11 07:06:56;;;;;;;0.20;0.15;;;13.90;78.40;;;;;;5050407;28;20444;-55
2023/01/11 07:09:23;;;;;;;0.10;0.10;;;13.90;78.50;;;;;;5039936;28;20037;-48
2023/01/11 07:11:52;;;;;;;0.52;0.20;;;13.90;78.40;;;;;;5041035;28;20045;-49
2023/01/11 07:14:21;;;;;;;0.52;0.38;;;13.90;78.40;;;;;;5049793;28;20107;-49
2023/01/11 07:16:51;;;;;;;0.32;0.20;;;13.90;78.40;;;;;;5045684;28;20044;-47
2023/01/11 07:19:21;;;;;;;0.10;0.10;;;14.00;78.50;;;;;;5042286;28;20071;-52
2023/01/11 07:21:55;;;;;;;0.85;0.30;;;14.00;78.40;;;;;;5041688;28;20100;-55
2023/01/11 07:24:24;;;;;;;0.20;0.15;;;13.90;78.30;;;;;;5039310;28;20508;-49
2023/01/11 07:26:55;;;;;;;0.85;0.50;;;13.90;78.30;;;;;;5049401;28;20147;-52
2023/01/11 07:29:23;;;;;;;0.28;0.28;;;14.00;78.50;;;;;;5051394;28;20112;-49
2023/01/11 07:31:53;;;;;;;1.75;0.30;;;14.00;78.40;;;;;;5052488;28;20448;-52
2023/01/11 07:34:19;;;;;;;0.38;0.35;;;14.00;78.50;;;;;;5044604;28;20115;-48
2023/01/11 07:36:46;;;;;;;0.75;0.50;;;14.00;78.40;;;;;;5039886;28;20120;-54
2023/01/11 07:39:17;;;;;;;1.30;0.75;;;14.00;78.50;;;;;;5039620;28;20041;-53
2023/01/11 07:44:30;;;;;;;0.52;0.52;;;14.00;78.50;;;;;;5038709;28;20053;-53
2023/01/11 07:46:59;;;;;;;2.60;0.70;;;14.00;78.40;;;;;;5041354;28;20052;-53
2023/01/11 07:49:30;;;;;;;0.77;0.50;;;14.00;78.40;;;;;;5040804;28;20075;-50
2023/01/11 07:51:57;;;;;;;2.13;0.70;;;14.00;79.00;;;;;;5046272;28;20045;-49
2023/01/11 07:54:24;;;;;;;0.95;0.90;;;14.00;78.40;;;;;;5039610;28;20041;-51
2023/01/11 07:56:56;;;;;;;0.80;0.57;;;14.00;78.40;;;;;;5039876;28;20624;-49
2023/01/11 07:59:25;;;;;;;1.02;0.93;;;14.10;78.40;;;;;;5038726;28;20119;-48
2023/01/11 08:02:03;;;;;;;2.58;1.10;;;14.10;78.40;;;;;;5045646;28;20074;-49
2023/01/11 08:04:30;;;;;;;1.20;1.10;;;14.10;78.40;;;;;;5041536;28;20049;-53
2023/01/11 08:07:00;;;;;;;2.17;1.30;;;14.10;78.30;;;;;;5051176;28;20045;-53
2023/01/11 08:09:29;;;;;;;2.97;1.80;;;14.10;78.30;;;;;;5037887;28;20048;-51
2023/01/11 08:14:45;;;;;;;2.67;2.00;;;14.10;78.10;;;;;;5040538;28;20506;-52
2023/01/11 08:17:16;;;;;;;3.97;2.00;;;14.10;78.00;;;;;;5044030;28;20087;-54
2023/01/11 08:19:43;;;;;;;6.53;2.88;;;14.10;77.80;;;;;;5043705;28;20036;-52
2023/01/11 08:22:10;;;;;;;4.15;2.30;;;14.10;77.40;;;;;;5048489;28;20124;-53
2023/01/11 08:24:36;;;;;;;6.10;2.45;;;14.10;77.10;;;;;;5039483;28;20396;-52
2023/01/11 08:27:06;;;;;;;3.58;2.33;;;14.00;77.00;;;;;;5043343;28;20119;-49
2023/01/11 08:29:35;;;;;;;4.15;2.15;;;14.10;76.60;;;;;;5040480;28;20116;-51
2023/01/11 08:32:05;;;;;;;5.68;2.63;;;14.00;76.40;;;;;;5051184;28;20048;-52
2023/01/11 08:34:33;;;;;;;5.97;2.65;;;14.00;76.30;;;;;;5049185;28;20044;-53
2023/01/11 08:37:01;;;;;;;8.98;3.53;;;14.00;76.30;;;;;;5021310;28;20037;-51
2023/01/11 08:39:30;;;;;;;9.38;3.15;;;14.00;76.20;;;;;;5038122;28;20501;-51
2023/01/11 08:42:01;;;;;;;5.78;2.67;;;13.90;76.10;;;;;;5041215;28;20098;-48
2023/01/11 08:44:32;;;;;;;7.65;2.92;;;13.90;76.10;;;;;;5050446;28;20056;-52
2023/01/11 08:47:02;;;;;;;5.43;2.53;;;13.90;76.00;;;;;;5047813;28;20047;-50
2023/01/11 08:49:30;;;;;;;7.90;2.38;;;13.80;75.80;;;;;;5039575;28;20049;-49
2023/01/11 08:51:58;;;;;;;6.20;3.20;;;13.90;75.70;;;;;;5047289;28;20051;-47
2023/01/11 08:54:27;;;;;;;7.82;2.45;;;13.80;75.50;;;;;;5042568;28;20049;-48
2023/01/11 08:56:55;;;;;;;5.22;2.53;;;13.80;75.50;;;;;;5045092;28;20037;-51
2023/01/11 08:59:27;;;;;;;6.85;2.88;;;13.80;75.40;;;;;;5041498;28;20497;-49
2023/01/11 09:01:54;;;;;;;7.75;3.33;;;13.80;75.30;;;;;;5039355;28;20049;-52
2023/01/11 09:04:20;;;;;;;9.27;2.40;;;13.80;75.30;;;;;;5032274;28;20048;-52
2023/01/11 09:06:52;;;;;;;8.05;3.08;;;13.70;75.30;;;;;;5044606;28;20049;-49
2023/01/11 09:09:20;;;;;;;13.77;3.65;;;13.70;75.20;;;;;;5038192;28;20099;-52
2023/01/11 09:11:52;;;;;;;9.98;2.88;;;13.70;75.30;;;;;;5027652;28;20045;-49
2023/01/11 09:14:26;;;;;;;6.07;2.50;;;13.70;75.50;;;;;;5043892;28;20108;-52
2023/01/11 09:16:53;;;;;;;7.88;2.65;;;13.70;75.40;;;;;;5039827;28;20492;-49
2023/01/11 09:19:21;;;;;;;11.20;2.80;;;13.60;76.10;;;;;;5043993;28;20077;-47
2023/01/11 09:21:50;;;;;;;10.23;3.47;;;13.70;75.50;;;;;;5038197;28;20124;-52
2023/01/11 09:24:17;;;;;;;8.55;3.03;;;13.70;75.40;;;;;;5022952;28;20055;-52
2023/01/11 09:26:47;;;;;;;10.48;3.85;;;13.60;75.20;;;;;;5031356;28;20560;-52
2023/01/11 09:29:14;;;;;;;12.48;3.83;;;13.60;75.10;;;;;;5039371;28;20045;-50
2023/01/11 09:31:40;;;;;;;6.43;3.28;;;13.70;74.80;;;;;;5030747;28;20449;-50
2023/01/11 09:34:11;;;;;;;11.23;3.85;;;13.60;74.60;;;;;;5038464;28;20440;-49
2023/01/11 09:36:44;;;;;;;13.93;3.90;;;13.60;74.40;;;;;;5042708;28;20095;-51
2023/01/11 09:39:13;;;;;;;11.57;3.10;;;13.60;74.40;;;;;;5038488;28;20049;-50
2023/01/11 09:42:07;;;;;;;11.95;3.15;;;13.60;73.90;;;;;;5039573;28;20037;-51
2023/01/11 09:44:53;;;;;;;8.68;2.30;;;13.60;73.70;;;;;;5023050;28;20037;-52
2023/01/11 09:47:29;;;;;;;8.50;3.03;;;13.70;73.60;;;;;;5034821;28;20078;-51
2023/01/11 09:50:05;;;;;;;8.25;3.45;;;13.60;73.30;;;;;;5040922;28;20075;-49
2023/01/11 09:52:39;;;;;;;10.25;3.58;;;13.60;73.20;;;;;;5049607;28;20079;-50
2023/01/11 09:55:18;;;;;;;9.18;2.35;;;13.60;73.20;;;;;;5038589;28;20043;-51
2023/01/11 09:58:10;;;;;;;10.80;3.13;;;13.60;73.40;;;;;;5037374;28;20569;-49
2023/01/11 10:00:59;;;;;;;8.57;2.78;;;13.60;73.10;;;;;;5039198;28;20600;-52
2023/01/11 10:04:14;;;;;;;7.50;3.15;;;13.60;73.00;;;;;;5015743;28;20054;-50
2023/01/11 10:06:54;;;;;;;5.40;2.63;;;13.60;73.00;;;;;;5048594;28;20049;-51
2023/01/11 10:09:34;;;;;;;8.00;2.88;;;13.60;73.20;;;;;;5037957;28;20033;-52
2023/01/11 10:12:59;;;;;;;8.90;3.30;;;13.60;73.00;;;;;;5045700;28;20047;-48
2023/01/11 10:16:29;;;;;;;7.82;3.58;;;13.60;73.20;;;;;;5040941;28;20052;-48
2023/01/11 10:19:46;;;;;;;6.47;2.65;;;13.60;73.00;;;;;;4931767;28;20043;-50
2023/01/11 10:22:38;;;;;;;8.68;2.67;;;13.60;72.30;;;;;;5041878;28;20079;-53
2023/01/11 10:25:17;;;;;;;11.25;3.00;;;13.60;72.30;;;;;;5039093;28;20489;-49
2023/01/11 10:28:05;;;;;;;9.02;3.53;;;13.50;71.80;;;;;;5034000;28;20037;-49
2023/01/11 10:31:10;;;;;;;7.88;3.17;;;13.50;71.50;;;;;;5039088;28;20045;-53
2023/01/11 10:37:15;;;;;;;9.32;3.67;;;13.40;72.00;;;;;;5041012;28;20075;-53
2023/01/11 10:43:02;;;;;;;14.77;4.25;;;13.40;72.10;;;;;;5044189;28;20067;-52
2023/01/11 10:45:47;;;;;;;8.68;5.07;;;13.40;72.10;;;;;;5038201;28;20128;-52
2023/01/11 10:48:22;;;;;;;10.50;5.05;;;13.40;72.00;;;;;;5033661;28;20049;-47
2023/01/11 10:51:00;;;;;;;11.95;4.70;;;13.40;72.00;;;;;;5040472;28;20065;-51
2023/01/11 10:53:33;;;;;;;7.80;4.68;;;13.40;72.10;;;;;;5036134;28;20029;-49
2023/01/11 10:56:45;;;;;;;8.15;4.78;;;13.40;72.00;;;;;;5044783;28;20039;-47
2023/01/11 10:59:55;;;;;;;7.80;4.07;;;13.40;71.60;;;;;;5037852;28;20060;-49
2023/01/11 11:02:38;;;;;;;9.57;3.60;;;13.40;70.90;;;;;;5042722;28;20061;-52
2023/01/11 11:05:41;;;;;;;8.68;3.90;;;13.40;71.00;;;;;;5043902;28;20037;-48
2023/01/11 11:08:25;;;;;;;13.07;4.85;;;13.40;70.90;;;;;;5038487;28;20045;-50
2023/01/11 11:11:19;;;;;;;10.43;5.22;;;13.40;71.00;;;;;;5037228;28;20064;-51
2023/01/11 11:14:14;;;;;;;9.68;3.90;;;13.50;71.10;;;;;;5037562;28;20041;-52
2023/01/11 11:16:50;;;;;;;9.68;3.88;;;13.50;71.00;;;;;;5034665;28;20041;-51
2023/01/11 11:19:24;;;;;;;10.38;4.05;;;13.60;71.20;;;;;;5047203;28;20060;-52
2023/01/11 11:21:54;;;;;;;14.35;4.15;;;13.70;71.10;;;;;;5041229;28;20079;-50
2023/01/11 11:24:49;;;;;;;10.90;3.85;;;13.70;71.00;;;;;;5042981;28;20040;-49
2023/01/11 11:27:15;;;;;;;9.65;3.38;;;13.80;70.10;;;;;;5042185;28;20068;-50
2023/01/11 11:29:49;;;;;;;8.43;3.72;;;13.80;70.00;;;;;;5043413;28;20046;-48
2023/01/11 11:32:27;;;;;;;10.00;3.17;;;13.80;69.10;;;;;;5042292;28;20120;-48
2023/01/11 11:34:55;;;;;;;11.40;4.10;;;13.90;69.30;;;;;;5041773;28;20039;-49
2023/01/11 11:37:31;;;;;;;12.27;3.30;;;13.90;69.40;;;;;;5044385;28;21308;-48
2023/01/11 11:39:58;;;;;;;8.35;3.65;;;13.90;68.90;;;;;;5040497;28;20514;-49
2023/01/11 11:42:26;;;;;;;7.35;3.15;;;14.00;69.00;;;;;;5043420;28;20037;-55
2023/01/11 11:45:08;;;;;;;8.57;3.13;;;14.00;68.60;;;;;;5045981;28;20163;-51
2023/01/11 11:47:37;;;;;;;8.00;3.40;;;14.00;67.70;;;;;;5042598;28;20073;-49
2023/01/11 11:50:19;;;;;;;12.98;2.95;;;14.10;68.10;;;;;;5043442;28;20049;-52
2023/01/11 11:53:06;;;;;;;10.70;2.92;;;14.10;67.60;;;;;;5040101;28;20593;-51
2023/01/11 11:55:35;;;;;;;10.50;3.55;;;14.10;68.00;;;;;;5043677;28;20038;-52
2023/01/11 11:58:12;;;;;;;6.38;2.97;;;14.10;67.50;;;;;;5043252;28;20456;-48
2023/01/11 12:00:48;;;;;;;8.88;3.05;;;14.10;67.40;;;;;;5043818;28;20064;-50
2023/01/11 12:03:23;;;;;;;6.13;2.60;;;14.10;67.10;;;;;;5031893;28;20036;-49
2023/01/11 12:06:03;;;;;;;7.38;2.92;;;14.10;66.80;;;;;;5039588;28;20049;-53
2023/01/11 12:08:34;;;;;;;10.82;2.88;;;14.00;66.50;;;;;;5024349;28;20040;-49
2023/01/11 12:11:04;;;;;;;9.13;2.58;;;14.00;66.60;;;;;;5044471;28;20049;-52
2023/01/11 12:13:39;;;;;;;9.25;3.05;;;13.90;66.60;;;;;;5024028;28;20524;-51
2023/01/11 12:16:21;;;;;;;6.55;2.85;;;13.90;66.90;;;;;;5040275;28;20072;-56
2023/01/11 12:18:49;;;;;;;9.45;3.22;;;13.90;66.80;;;;;;5043029;28;20409;-50
2023/01/11 12:21:36;;;;;;;9.50;3.33;;;13.90;67.30;;;;;;5032858;28;20551;-50
2023/01/11 12:24:12;;;;;;;9.98;3.15;;;13.90;67.00;;;;;;5040761;28;20075;-49
2023/01/11 12:27:18;;;;;;;7.53;1.90;;;13.80;66.90;;;;;;5039095;28;20060;-50
2023/01/11 12:30:17;;;;;;;7.88;2.78;;;13.90;66.40;;;;;;5036485;28;20048;-52
2023/01/11 12:33:32;;;;;;;10.90;3.35;;;13.80;65.90;;;;;;5037750;28;20046;-52
2023/01/11 12:36:12;;;;;;;9.20;2.10;;;13.90;66.20;;;;;;4980727;28;20099;-52
2023/01/11 12:38:38;;;;;;;10.75;2.75;;;13.90;66.20;;;;;;5038066;28;20048;-53
2023/01/11 12:41:46;;;;;;;14.52;2.78;;;13.80;66.40;;;;;;5042274;28;20049;-52
2023/01/11 12:44:36;;;;;;;9.73;2.72;;;13.90;66.40;;;;;;5031146;28;20094;-50
2023/01/11 12:47:39;;;;;;;8.70;3.50;;;13.90;66.30;;;;;;5039178;28;20059;-52
2023/01/11 12:50:23;;;;;;;8.25;2.13;;;13.90;66.00;;;;;;5033240;28;20050;-53
2023/01/11 12:52:59;;;;;;;8.57;2.40;;;14.00;66.40;;;;;;5036603;28;20120;-51
2023/01/11 12:55:54;;;;;;;8.10;2.40;;;14.00;66.50;;;;;;5041736;28;20037;-53
2023/01/11 12:58:32;;;;;;;9.27;2.58;;;14.10;65.50;;;;;;5040052;28;20043;-50
2023/01/11 13:01:19;;;;;;;9.60;2.53;;;14.10;65.30;;;;;;5045259;28;20049;-53
2023/01/11 13:04:09;;;;;;;8.10;1.95;;;14.10;65.50;;;;;;5036912;28;20048;-50
2023/01/11 13:07:14;;;;;;;8.75;2.63;;;14.20;65.10;;;;;;5049713;28;20052;-48
2023/01/11 13:10:01;;;;;;;12.45;2.63;;;14.20;64.20;;;;;;5019081;28;20060;-50
2023/01/11 13:12:44;;;;;;;6.22;2.30;;;14.20;64.50;;;;;;5035514;28;20042;-49
2023/01/11 13:15:57;;;;;;;5.95;2.03;;;14.20;64.30;;;;;;5038169;28;20605;-51
2023/01/11 13:19:01;;;;;;;6.72;2.00;;;14.30;63.60;;;;;;5039905;28;20045;-51
2023/01/11 13:21:32;;;;;;;5.97;2.60;;;14.30;63.60;;;;;;5038214;28;20052;-50
2023/01/11 13:24:03;;;;;;;10.43;2.92;;;14.40;63.80;;;;;;5038435;28;20052;-49
2023/01/11 13:26:42;;;;;;;8.20;2.13;;;14.40;63.50;;;;;;5041294;28;20045;-49
2023/01/11 13:29:30;;;;;;;9.45;2.80;;;14.40;63.30;;;;;;5040942;28;20057;-53
2023/01/11 13:32:04;;;;;;;6.85;2.40;;;14.50;63.00;;;;;;5035480;28;20041;-49
2023/01/11 13:34:55;;;;;;;9.65;2.30;;;14.50;63.20;;;;;;5039715;28;20120;-53
2023/01/11 13:37:35;;;;;;;7.45;2.35;;;14.50;62.10;;;;;;5030689;28;20042;-50
2023/01/11 13:40:24;;;;;;;10.10;2.40;;;14.50;61.90;;;;;;5044250;28;20584;-52
2023/01/11 13:43:13;;;;;;;7.97;3.00;;;14.50;61.40;;;;;;5037424;28;20128;-49
2023/01/11 13:45:46;;;;;;;4.63;1.73;;;14.60;61.70;;;;;;5022643;28;20053;-51
2023/01/11 13:48:28;;;;;;;7.95;2.05;;;14.60;61.90;;;;;;5041357;28;20041;-49
2023/01/11 13:51:23;;;;;;;10.55;2.20;;;14.60;61.60;;;;;;5041241;28;20045;-52
2023/01/11 13:53:59;;;;;;;7.95;2.40;;;14.60;60.90;;;;;;5024050;28;20140;-48
2023/01/11 13:56:43;;;;;;;9.65;3.70;;;14.60;61.10;;;;;;5040757;28;20033;-50
2023/01/11 13:59:30;;;;;;;6.93;1.58;;;14.60;60.60;;;;;;5044134;28;20124;-52